CES7630 ZUXC-PHNL
Flight info
| Callsign | CES7630 |
|---|---|
| Flight time | N/A |
| Altitude | 35100 |
| Route | BOPTU W162 KAKMI W144 IGNAK W179 WFX B213 ESPEG V154 SNF W269 OLPOV B213 WHA R343 PK A593 AKARA/K0913F351 A593 LAMEN/N0493F351 A593 SADLI Y590 BEDAR Y591 FUE Y23 KASTE Y81 TASOT Y57 LIGNI Y816 IPROS Y830 LAPIL OTR13 SEALS DCT 34N153E DCT 34N159E DCT 33N166E DCT 31N173E DCT 29N179E DCT 27N174W DCT 25N168W DCT CANON DCT CANON |
| Aircraft | MD11/H-SDE1E2E3FGHIJ2J3J4J5M1RWXY/LB1D1 |
Departure
| Time | 2026-05-05 14:40 |
|---|---|
| Airport | Xichang Qingshan Airport (ZUXC) |
Arrival
| Time | N/A |
|---|---|
| Airport | Daniel K. Inouye International Airport (PHNL) |
| Time | Latitude | Longitude | Altitude | Speed | Heading |
|---|---|---|---|---|---|
| 2026-05-05 14:20 | 27.98292 | 102.18647 | 5072 ft | 0 kts | 88° |
| 2026-05-05 14:26 | 27.98293 | 102.18623 | 5089 ft | 4 kts | 93° |
| 2026-05-05 14:26 | 27.98293 | 102.18596 | 5089 ft | 4 kts | 74° |
| 2026-05-05 14:26 | 27.98287 | 102.18578 | 5090 ft | 4 kts | 22° |
| 2026-05-05 14:27 | 27.98270 | 102.18577 | 5091 ft | 4 kts | 340° |
| 2026-05-05 14:27 | 27.98244 | 102.18588 | 5092 ft | 4 kts | 344° |
| 2026-05-05 14:27 | 27.98225 | 102.18593 | 5092 ft | 0 kts | 360° |
| 2026-05-05 14:30 | 27.98227 | 102.18593 | 5090 ft | 1 kts | 360° |
| 2026-05-05 14:30 | 27.98259 | 102.18592 | 5089 ft | 8 kts | 359° |
| 2026-05-05 14:30 | 27.98335 | 102.18589 | 5089 ft | 14 kts | 358° |
| 2026-05-05 14:31 | 27.98449 | 102.18585 | 5089 ft | 18 kts | 358° |
| 2026-05-05 14:31 | 27.98586 | 102.18580 | 5089 ft | 22 kts | 358° |
| 2026-05-05 14:31 | 27.98744 | 102.18575 | 5089 ft | 21 kts | 358° |
| 2026-05-05 14:31 | 27.98896 | 102.18569 | 5089 ft | 23 kts | 358° |
| 2026-05-05 14:32 | 27.99058 | 102.18562 | 5090 ft | 24 kts | 358° |
| 2026-05-05 14:32 | 27.99224 | 102.18555 | 5090 ft | 24 kts | 358° |
| 2026-05-05 14:32 | 27.99388 | 102.18550 | 5090 ft | 24 kts | 358° |
| 2026-05-05 14:32 | 27.99551 | 102.18543 | 5090 ft | 23 kts | 358° |
| 2026-05-05 14:33 | 27.99714 | 102.18537 | 5090 ft | 24 kts | 358° |
| 2026-05-05 14:33 | 27.99879 | 102.18531 | 5089 ft | 24 kts | 358° |
| 2026-05-05 14:33 | 28.00043 | 102.18523 | 5091 ft | 23 kts | 358° |
| 2026-05-05 14:33 | 28.00207 | 102.18516 | 5089 ft | 24 kts | 358° |
| 2026-05-05 14:34 | 28.00366 | 102.18511 | 5089 ft | 14 kts | 358° |
| 2026-05-05 14:34 | 28.00427 | 102.18509 | 5090 ft | 13 kts | 358° |
| 2026-05-05 14:34 | 28.00480 | 102.18504 | 5090 ft | 3 kts | 341° |
| 2026-05-05 14:34 | 28.00491 | 102.18490 | 5090 ft | 0 kts | 304° |
| 2026-05-05 14:38 | 28.00492 | 102.18487 | 5090 ft | 2 kts | 302° |
| 2026-05-05 14:38 | 28.00499 | 102.18446 | 5091 ft | 9 kts | 272° |
| 2026-05-05 14:38 | 28.00485 | 102.18375 | 5091 ft | 5 kts | 224° |
| 2026-05-05 14:38 | 28.00434 | 102.18371 | 5091 ft | 15 kts | 178° |
| 2026-05-05 14:39 | 28.00058 | 102.18387 | 5092 ft | 91 kts | 178° |
| 2026-05-05 14:39 | 27.99199 | 102.18419 | 5092 ft | 153 kts | 178° |
| 2026-05-05 14:39 | 27.97988 | 102.18474 | 5166 ft | 183 kts | 176° |
| 2026-05-05 14:39 | 27.96699 | 102.18514 | 5633 ft | 189 kts | 173° |
| 2026-05-05 14:40 | 27.95370 | 102.18575 | 6194 ft | 189 kts | 170° |
| 2026-05-05 14:40 | 27.94047 | 102.18666 | 6783 ft | 192 kts | 169° |
| 2026-05-05 14:40 | 27.92708 | 102.18757 | 7350 ft | 194 kts | 169° |
| 2026-05-05 14:40 | 27.91358 | 102.18846 | 7887 ft | 195 kts | 169° |
| 2026-05-05 14:41 | 27.90217 | 102.18853 | 8281 ft | 203 kts | 178° |
| 2026-05-05 14:41 | 27.89702 | 102.18766 | 8358 ft | 213 kts | 185° |
| 2026-05-05 14:41 | 27.88214 | 102.18269 | 8534 ft | 231 kts | 192° |
| 2026-05-05 14:41 | 27.86647 | 102.17677 | 8707 ft | 240 kts | 185° |
| 2026-05-05 14:42 | 27.85051 | 102.17718 | 9153 ft | 225 kts | 157° |
| 2026-05-05 14:42 | 27.83589 | 102.18319 | 9658 ft | 224 kts | 150° |
| 2026-05-05 14:42 | 27.82146 | 102.19008 | 10164 ft | 226 kts | 149° |
| 2026-05-05 14:42 | 27.80697 | 102.19705 | 10650 ft | 227 kts | 148° |
| 2026-05-05 14:43 | 27.79343 | 102.20596 | 11001 ft | 227 kts | 134° |
| 2026-05-05 14:43 | 27.78346 | 102.21976 | 11150 ft | 230 kts | 111° |
| 2026-05-05 14:43 | 27.78079 | 102.22774 | 11216 ft | 233 kts | 100° |
| 2026-05-05 14:43 | 27.77968 | 102.23877 | 11302 ft | 238 kts | 86° |
| 2026-05-05 14:44 | 27.78371 | 102.25718 | 11448 ft | 248 kts | 69° |
| 2026-05-05 14:44 | 27.79117 | 102.27526 | 11577 ft | 261 kts | 65° |
| 2026-05-05 14:44 | 27.79963 | 102.29426 | 11688 ft | 283 kts | 65° |
| 2026-05-05 14:44 | 27.80894 | 102.31493 | 11826 ft | 308 kts | 65° |
| 2026-05-05 14:45 | 27.81900 | 102.33730 | 11977 ft | 329 kts | 65° |
| 2026-05-05 14:45 | 27.82948 | 102.36058 | 12598 ft | 334 kts | 64° |
| 2026-05-05 14:45 | 27.84004 | 102.38407 | 13299 ft | 338 kts | 65° |
| 2026-05-05 14:45 | 27.85064 | 102.40767 | 14116 ft | 336 kts | 64° |
| 2026-05-05 14:46 | 27.86110 | 102.43101 | 15073 ft | 329 kts | 64° |
| 2026-05-05 14:46 | 27.87132 | 102.45386 | 16050 ft | 323 kts | 63° |
| 2026-05-05 14:46 | 27.88159 | 102.47685 | 16445 ft | 335 kts | 63° |
| 2026-05-05 14:46 | 27.89212 | 102.50042 | 17120 ft | 333 kts | 62° |
| 2026-05-05 14:47 | 27.90241 | 102.52337 | 18104 ft | 327 kts | 61° |
| 2026-05-05 14:47 | 27.91272 | 102.54631 | 18827 ft | 328 kts | 59° |
| 2026-05-05 14:47 | 27.92311 | 102.56935 | 19481 ft | 330 kts | 59° |
| 2026-05-05 14:47 | 27.93359 | 102.59258 | 20132 ft | 333 kts | 58° |
| 2026-05-05 14:48 | 27.94415 | 102.61598 | 20717 ft | 336 kts | 57° |
| 2026-05-05 14:48 | 27.95478 | 102.63958 | 21295 ft | 338 kts | 56° |
| 2026-05-05 14:48 | 27.96552 | 102.66339 | 21815 ft | 342 kts | 56° |
| 2026-05-05 14:48 | 27.97624 | 102.68719 | 22312 ft | 345 kts | 56° |
| 2026-05-05 14:49 | 27.98717 | 102.71145 | 22841 ft | 348 kts | 56° |
| 2026-05-05 14:49 | 27.99821 | 102.73600 | 23358 ft | 351 kts | 56° |
| 2026-05-05 14:49 | 28.00940 | 102.76095 | 23998 ft | 351 kts | 56° |
| 2026-05-05 14:49 | 28.02026 | 102.78521 | 24662 ft | 350 kts | 56° |
| 2026-05-05 14:50 | 28.03126 | 102.80978 | 25323 ft | 349 kts | 56° |
| 2026-05-05 14:50 | 28.04221 | 102.83422 | 25998 ft | 348 kts | 56° |
| 2026-05-05 14:50 | 28.05312 | 102.85860 | 26649 ft | 346 kts | 56° |
| 2026-05-05 14:50 | 28.06398 | 102.88286 | 27284 ft | 345 kts | 56° |
| 2026-05-05 14:51 | 28.07481 | 102.90706 | 27926 ft | 344 kts | 56° |
| 2026-05-05 14:51 | 28.08561 | 102.93119 | 28419 ft | 344 kts | 56° |
| 2026-05-05 14:51 | 28.09638 | 102.95532 | 28902 ft | 342 kts | 56° |
| 2026-05-05 14:51 | 28.10711 | 102.97936 | 29449 ft | 341 kts | 56° |
| 2026-05-05 14:52 | 28.11778 | 103.00321 | 29927 ft | 341 kts | 56° |
| 2026-05-05 14:52 | 28.12846 | 103.02715 | 30406 ft | 340 kts | 56° |
| 2026-05-05 14:52 | 28.13909 | 103.05098 | 30842 ft | 339 kts | 56° |
| 2026-05-05 14:52 | 28.14969 | 103.07475 | 31259 ft | 338 kts | 56° |
| 2026-05-05 14:53 | 28.16029 | 103.09854 | 31643 ft | 337 kts | 56° |
| 2026-05-05 14:53 | 28.17086 | 103.12227 | 32029 ft | 337 kts | 56° |
| 2026-05-05 14:53 | 28.18138 | 103.14592 | 32418 ft | 336 kts | 56° |
| 2026-05-05 14:53 | 28.19189 | 103.16956 | 32766 ft | 335 kts | 56° |
| 2026-05-05 14:54 | 28.20239 | 103.19316 | 33061 ft | 336 kts | 56° |
| 2026-05-05 14:54 | 28.21286 | 103.21674 | 33423 ft | 334 kts | 56° |
| 2026-05-05 14:54 | 28.22329 | 103.24026 | 33721 ft | 333 kts | 56° |
| 2026-05-05 14:54 | 28.23370 | 103.26371 | 34020 ft | 333 kts | 56° |
| 2026-05-05 14:55 | 28.24407 | 103.28711 | 34339 ft | 332 kts | 56° |
| 2026-05-05 14:55 | 28.25443 | 103.31048 | 34643 ft | 332 kts | 56° |
| 2026-05-05 14:55 | 28.26464 | 103.33354 | 34906 ft | 331 kts | 56° |
| 2026-05-05 14:55 | 28.27499 | 103.35704 | 35004 ft | 336 kts | 56° |
| 2026-05-05 14:56 | 28.29584 | 103.40454 | 35038 ft | 335 kts | 56° |
| 2026-05-05 14:56 | 28.31644 | 103.45147 | 35024 ft | 331 kts | 56° |
| 2026-05-05 14:57 | 28.33700 | 103.49809 | 35036 ft | 332 kts | 56° |
| 2026-05-05 14:57 | 28.35759 | 103.54483 | 35031 ft | 331 kts | 56° |
| 2026-05-05 14:58 | 28.37816 | 103.59156 | 35024 ft | 331 kts | 56° |
| 2026-05-05 14:58 | 28.39869 | 103.63825 | 35032 ft | 331 kts | 56° |
| 2026-05-05 14:59 | 28.41919 | 103.68495 | 35036 ft | 331 kts | 56° |
| 2026-05-05 14:59 | 28.43975 | 103.73180 | 35036 ft | 331 kts | 56° |
| 2026-05-05 15:00 | 28.45694 | 103.77103 | 35023 ft | 330 kts | 57° |
| 2026-05-05 15:00 | 28.48075 | 103.82546 | 35028 ft | 332 kts | 56° |
| 2026-05-05 15:01 | 28.49620 | 103.86079 | 35029 ft | 331 kts | 56° |
| 2026-05-05 15:01 | 28.51665 | 103.90762 | 35029 ft | 330 kts | 56° |
| 2026-05-05 15:02 | 28.53709 | 103.95447 | 35032 ft | 331 kts | 56° |
| 2026-05-05 15:02 | 28.55749 | 104.00131 | 35026 ft | 330 kts | 56° |
| 2026-05-05 15:03 | 28.57792 | 104.04834 | 35022 ft | 332 kts | 57° |
| 2026-05-05 15:03 | 28.59817 | 104.09541 | 35041 ft | 331 kts | 57° |
| 2026-05-05 15:04 | 28.61846 | 104.14244 | 35032 ft | 331 kts | 57° |
| 2026-05-05 15:04 | 28.63936 | 104.18896 | 35025 ft | 328 kts | 53° |
| 2026-05-05 15:05 | 28.66642 | 104.22975 | 35035 ft | 321 kts | 41° |
| 2026-05-05 15:05 | 28.68276 | 104.24634 | 35028 ft | 318 kts | 35° |
| 2026-05-05 15:06 | 28.72056 | 104.27192 | 35025 ft | 316 kts | 23° |
| 2026-05-05 15:06 | 28.76281 | 104.28618 | 35028 ft | 319 kts | 12° |
| 2026-05-05 15:07 | 28.80739 | 104.28863 | 35032 ft | 324 kts | 3° |
| 2026-05-05 15:07 | 28.85260 | 104.28573 | 35026 ft | 325 kts | 2° |
| 2026-05-05 15:08 | 28.89775 | 104.28277 | 35030 ft | 325 kts | 2° |
| 2026-05-05 15:08 | 28.94292 | 104.28007 | 35031 ft | 325 kts | 2° |
| 2026-05-05 15:09 | 28.98811 | 104.27751 | 35027 ft | 325 kts | 3° |
| 2026-05-05 15:09 | 29.03325 | 104.27498 | 35029 ft | 325 kts | 3° |
| 2026-05-05 15:10 | 29.07839 | 104.27247 | 35030 ft | 325 kts | 3° |
| 2026-05-05 15:10 | 29.12343 | 104.26997 | 35028 ft | 325 kts | 3° |
| 2026-05-05 15:11 | 29.16861 | 104.26746 | 35029 ft | 325 kts | 3° |
| 2026-05-05 15:11 | 29.21374 | 104.26494 | 35028 ft | 325 kts | 3° |
| 2026-05-05 15:12 | 29.25889 | 104.26244 | 35029 ft | 324 kts | 4° |
| 2026-05-05 15:12 | 29.30346 | 104.26607 | 35031 ft | 320 kts | 12° |
| 2026-05-05 15:13 | 29.34744 | 104.27363 | 35030 ft | 320 kts | 12° |
| 2026-05-05 15:13 | 29.39144 | 104.28132 | 35029 ft | 320 kts | 12° |
| 2026-05-05 15:14 | 29.43541 | 104.28891 | 35025 ft | 320 kts | 12° |
| 2026-05-05 15:14 | 29.47942 | 104.29645 | 35030 ft | 320 kts | 12° |
| 2026-05-05 15:15 | 29.52346 | 104.30398 | 35028 ft | 320 kts | 12° |
| 2026-05-05 15:15 | 29.56746 | 104.31150 | 35030 ft | 320 kts | 12° |
| 2026-05-05 15:16 | 29.61146 | 104.31902 | 35027 ft | 320 kts | 12° |
| 2026-05-05 15:16 | 29.65549 | 104.32656 | 35029 ft | 320 kts | 12° |
| 2026-05-05 15:17 | 29.69948 | 104.33410 | 35030 ft | 320 kts | 12° |
| 2026-05-05 15:17 | 29.74353 | 104.34165 | 35030 ft | 320 kts | 12° |
| 2026-05-05 15:18 | 29.78725 | 104.34915 | 35030 ft | 320 kts | 12° |
| 2026-05-05 15:18 | 29.83124 | 104.35671 | 35030 ft | 320 kts | 12° |
| 2026-05-05 15:19 | 29.87526 | 104.36428 | 35030 ft | 320 kts | 12° |
| 2026-05-05 15:19 | 29.91927 | 104.37185 | 35030 ft | 320 kts | 12° |
| 2026-05-05 15:20 | 29.96326 | 104.37943 | 35032 ft | 320 kts | 12° |
| 2026-05-05 15:20 | 30.00729 | 104.38702 | 35029 ft | 320 kts | 12° |
| 2026-05-05 15:21 | 30.05127 | 104.39461 | 35027 ft | 320 kts | 12° |
| 2026-05-05 15:21 | 30.09529 | 104.40221 | 35030 ft | 320 kts | 12° |
| 2026-05-05 15:22 | 30.13924 | 104.40985 | 35030 ft | 320 kts | 12° |
| 2026-05-05 15:22 | 30.18321 | 104.41755 | 35030 ft | 320 kts | 12° |
| 2026-05-05 15:23 | 30.22719 | 104.42525 | 35029 ft | 320 kts | 12° |
| 2026-05-05 15:23 | 30.27116 | 104.43296 | 35029 ft | 320 kts | 12° |
| 2026-05-05 15:24 | 30.30773 | 104.43937 | 35029 ft | 320 kts | 12° |
| 2026-05-05 15:24 | 30.35173 | 104.44709 | 35030 ft | 320 kts | 12° |
| 2026-05-05 15:25 | 30.39571 | 104.45481 | 35029 ft | 320 kts | 12° |
| 2026-05-05 15:25 | 30.43971 | 104.46254 | 35029 ft | 320 kts | 12° |
| 2026-05-05 15:26 | 30.48368 | 104.47028 | 35029 ft | 320 kts | 12° |
| 2026-05-05 15:26 | 30.52690 | 104.48134 | 35029 ft | 317 kts | 20° |
| 2026-05-05 15:27 | 30.56660 | 104.50317 | 35025 ft | 317 kts | 32° |
| 2026-05-05 15:27 | 30.60051 | 104.53608 | 35027 ft | 321 kts | 43° |
| 2026-05-05 15:28 | 30.62667 | 104.57816 | 35030 ft | 329 kts | 55° |
| 2026-05-05 15:28 | 30.64397 | 104.62804 | 35030 ft | 338 kts | 64° |
| 2026-05-05 15:29 | 30.65711 | 104.68058 | 35028 ft | 339 kts | 65° |
| 2026-05-05 15:29 | 30.67016 | 104.73324 | 35027 ft | 339 kts | 65° |
| 2026-05-05 15:30 | 30.68341 | 104.78575 | 35030 ft | 339 kts | 65° |
| 2026-05-05 15:30 | 30.69674 | 104.83820 | 35028 ft | 339 kts | 65° |
| 2026-05-05 15:31 | 30.71010 | 104.89071 | 35027 ft | 339 kts | 65° |
| 2026-05-05 15:31 | 30.72345 | 104.94318 | 35031 ft | 339 kts | 65° |
| 2026-05-05 15:32 | 30.73678 | 104.99572 | 35027 ft | 339 kts | 65° |
| 2026-05-05 15:32 | 30.75008 | 105.04823 | 35028 ft | 339 kts | 65° |
| 2026-05-05 15:33 | 30.76337 | 105.10078 | 35029 ft | 339 kts | 65° |
| 2026-05-05 15:33 | 30.77661 | 105.15329 | 35032 ft | 339 kts | 65° |
| 2026-05-05 15:34 | 30.78977 | 105.20553 | 35030 ft | 339 kts | 65° |
| 2026-05-05 15:34 | 30.80299 | 105.25809 | 35026 ft | 339 kts | 65° |
| 2026-05-05 15:35 | 30.81620 | 105.31073 | 35029 ft | 339 kts | 65° |
| 2026-05-05 15:35 | 30.82938 | 105.36337 | 35030 ft | 339 kts | 65° |
| 2026-05-05 15:36 | 30.84243 | 105.41609 | 35032 ft | 340 kts | 66° |
| 2026-05-05 15:36 | 30.85402 | 105.46952 | 35033 ft | 341 kts | 67° |
| 2026-05-05 15:37 | 30.86528 | 105.52310 | 35029 ft | 341 kts | 67° |
| 2026-05-05 15:37 | 30.87660 | 105.57674 | 35029 ft | 341 kts | 67° |
| 2026-05-05 15:38 | 30.88795 | 105.63040 | 35029 ft | 341 kts | 67° |
| 2026-05-05 15:38 | 30.89929 | 105.68402 | 35028 ft | 341 kts | 67° |
| 2026-05-05 15:39 | 30.91061 | 105.73765 | 35029 ft | 341 kts | 67° |
| 2026-05-05 15:39 | 30.92191 | 105.79129 | 35030 ft | 341 kts | 67° |
| 2026-05-05 15:40 | 30.93320 | 105.84500 | 35031 ft | 341 kts | 67° |
| 2026-05-05 15:40 | 30.94446 | 105.89868 | 35029 ft | 341 kts | 67° |
| 2026-05-05 15:41 | 30.95571 | 105.95242 | 35029 ft | 341 kts | 67° |
| 2026-05-05 15:41 | 30.96672 | 106.00620 | 35030 ft | 344 kts | 70° |
| 2026-05-05 15:42 | 30.97211 | 106.06233 | 35030 ft | 351 kts | 76° |
| 2026-05-05 15:42 | 30.97521 | 106.11917 | 35026 ft | 352 kts | 76° |
| 2026-05-05 15:43 | 30.97831 | 106.17605 | 35028 ft | 352 kts | 76° |
| 2026-05-05 15:43 | 30.98155 | 106.23287 | 35029 ft | 352 kts | 76° |
| 2026-05-05 15:44 | 30.98483 | 106.28972 | 35027 ft | 351 kts | 76° |
| 2026-05-05 15:44 | 30.98808 | 106.34618 | 35027 ft | 351 kts | 76° |
| 2026-05-05 15:45 | 30.99133 | 106.40302 | 35027 ft | 351 kts | 76° |
| 2026-05-05 15:45 | 30.99456 | 106.45986 | 35031 ft | 352 kts | 76° |
| 2026-05-05 15:46 | 30.99776 | 106.51668 | 35031 ft | 352 kts | 76° |
| 2026-05-05 15:46 | 31.00093 | 106.57358 | 35032 ft | 352 kts | 76° |
| 2026-05-05 15:47 | 31.00409 | 106.63045 | 35027 ft | 352 kts | 76° |
| 2026-05-05 15:47 | 31.00722 | 106.68736 | 35038 ft | 352 kts | 76° |
| 2026-05-05 15:48 | 31.01032 | 106.74430 | 35026 ft | 352 kts | 76° |
| 2026-05-05 15:48 | 31.01340 | 106.80117 | 35027 ft | 352 kts | 76° |
| 2026-05-05 15:49 | 31.01645 | 106.85804 | 35028 ft | 352 kts | 76° |
| 2026-05-05 15:49 | 31.01948 | 106.91499 | 35027 ft | 352 kts | 76° |
| 2026-05-05 15:50 | 31.02249 | 106.97191 | 35033 ft | 352 kts | 76° |
| 2026-05-05 15:50 | 31.02527 | 107.02892 | 35029 ft | 352 kts | 76° |
| 2026-05-05 15:51 | 31.02808 | 107.08592 | 35028 ft | 352 kts | 76° |
| 2026-05-05 15:51 | 31.03096 | 107.14284 | 35032 ft | 352 kts | 76° |
| 2026-05-05 15:52 | 31.03384 | 107.19975 | 35031 ft | 352 kts | 76° |
| 2026-05-05 15:52 | 31.03672 | 107.25672 | 35026 ft | 352 kts | 76° |
| 2026-05-05 15:53 | 31.03957 | 107.31366 | 35034 ft | 352 kts | 76° |
| 2026-05-05 15:53 | 31.04240 | 107.37069 | 35026 ft | 352 kts | 76° |
| 2026-05-05 15:54 | 31.04514 | 107.42770 | 35027 ft | 353 kts | 77° |
| 2026-05-05 15:54 | 31.04709 | 107.48491 | 35031 ft | 354 kts | 77° |
| 2026-05-05 15:55 | 31.04860 | 107.54222 | 35032 ft | 354 kts | 78° |
| 2026-05-05 15:55 | 31.04977 | 107.59926 | 35026 ft | 354 kts | 78° |
| 2026-05-05 15:56 | 31.05093 | 107.65705 | 35030 ft | 354 kts | 78° |
| 2026-05-05 15:56 | 31.05204 | 107.71411 | 35025 ft | 354 kts | 78° |
| 2026-05-05 15:57 | 31.05313 | 107.77153 | 35026 ft | 354 kts | 78° |
| 2026-05-05 15:57 | 31.05422 | 107.82900 | 35038 ft | 355 kts | 78° |
| 2026-05-05 15:58 | 31.05528 | 107.88652 | 35032 ft | 354 kts | 78° |
| 2026-05-05 15:58 | 31.05632 | 107.94396 | 35027 ft | 354 kts | 78° |
| 2026-05-05 15:59 | 31.05734 | 108.00139 | 35026 ft | 354 kts | 78° |
| 2026-05-05 15:59 | 31.05833 | 108.05888 | 35039 ft | 355 kts | 78° |
| 2026-05-05 16:00 | 31.05930 | 108.11637 | 35025 ft | 355 kts | 78° |
| 2026-05-05 16:00 | 31.06024 | 108.17383 | 35021 ft | 354 kts | 78° |
| 2026-05-05 16:01 | 31.06117 | 108.23133 | 35031 ft | 355 kts | 78° |
| 2026-05-05 16:01 | 31.06205 | 108.28884 | 35033 ft | 355 kts | 78° |
| 2026-05-05 16:02 | 31.06291 | 108.34627 | 35025 ft | 354 kts | 78° |
| 2026-05-05 16:02 | 31.06376 | 108.40382 | 35031 ft | 355 kts | 78° |
| 2026-05-05 16:03 | 31.06457 | 108.46133 | 35026 ft | 355 kts | 78° |
| 2026-05-05 16:03 | 31.06536 | 108.51882 | 35031 ft | 354 kts | 78° |
| 2026-05-05 16:04 | 31.06613 | 108.57637 | 35027 ft | 355 kts | 78° |
| 2026-05-05 16:04 | 31.06686 | 108.63389 | 35024 ft | 355 kts | 78° |
| 2026-05-05 16:05 | 31.06738 | 108.69152 | 35027 ft | 355 kts | 79° |
| 2026-05-05 16:05 | 31.06791 | 108.74908 | 35026 ft | 355 kts | 79° |
| 2026-05-05 16:06 | 31.06852 | 108.80630 | 35033 ft | 355 kts | 78° |
| 2026-05-05 16:06 | 31.06914 | 108.86384 | 35024 ft | 355 kts | 79° |
| 2026-05-05 16:07 | 31.06976 | 108.92140 | 35025 ft | 355 kts | 78° |
| 2026-05-05 16:07 | 31.07033 | 108.97893 | 35032 ft | 356 kts | 79° |
| 2026-05-05 16:08 | 31.07089 | 109.03659 | 35029 ft | 355 kts | 79° |
| 2026-05-05 16:08 | 31.07142 | 109.09417 | 35036 ft | 356 kts | 79° |
| 2026-05-05 16:09 | 31.07193 | 109.15179 | 35033 ft | 355 kts | 79° |
| 2026-05-05 16:09 | 31.07241 | 109.20939 | 35032 ft | 355 kts | 79° |
| 2026-05-05 16:10 | 31.07285 | 109.26695 | 35021 ft | 355 kts | 79° |
| 2026-05-05 16:10 | 31.07329 | 109.32465 | 35027 ft | 355 kts | 79° |
| 2026-05-05 16:11 | 31.07370 | 109.38223 | 35023 ft | 355 kts | 79° |
| 2026-05-05 16:12 | 31.07443 | 109.49764 | 35036 ft | 356 kts | 79° |
| 2026-05-05 16:13 | 31.07507 | 109.64148 | 35023 ft | 356 kts | 79° |
| 2026-05-05 16:13 | 31.07485 | 109.68986 | 35030 ft | 359 kts | 83° |
| 2026-05-05 16:14 | 31.06163 | 109.75789 | 35029 ft | 378 kts | 96° |
| 2026-05-05 16:14 | 31.04463 | 109.81622 | 35035 ft | 380 kts | 97° |
| 2026-05-05 16:15 | 31.01390 | 109.92305 | 35029 ft | 379 kts | 96° |
| 2026-05-05 16:16 | 30.98099 | 110.03976 | 35027 ft | 379 kts | 96° |
| 2026-05-05 16:17 | 30.95627 | 110.12723 | 35030 ft | 379 kts | 96° |
| 2026-05-05 16:18 | 30.93149 | 110.21472 | 35023 ft | 379 kts | 96° |
| 2026-05-05 16:19 | 30.90663 | 110.30222 | 35022 ft | 379 kts | 96° |
| 2026-05-05 16:19 | 30.88172 | 110.38962 | 35029 ft | 379 kts | 96° |
| 2026-05-05 16:20 | 30.84843 | 110.50605 | 35025 ft | 379 kts | 97° |
| 2026-05-05 16:22 | 30.80657 | 110.65150 | 35026 ft | 380 kts | 97° |
| 2026-05-05 16:23 | 30.77273 | 110.76779 | 35031 ft | 379 kts | 97° |
| 2026-05-05 16:23 | 30.74745 | 110.85505 | 35032 ft | 380 kts | 97° |
| 2026-05-05 16:24 | 30.73057 | 110.91323 | 35030 ft | 380 kts | 97° |
| 2026-05-05 16:25 | 30.70522 | 111.00044 | 35026 ft | 380 kts | 97° |
| 2026-05-05 16:25 | 30.67979 | 111.08763 | 35027 ft | 380 kts | 97° |
| 2026-05-05 16:26 | 30.64581 | 111.20383 | 35029 ft | 380 kts | 97° |
| 2026-05-05 16:27 | 30.62993 | 111.26197 | 35027 ft | 371 kts | 90° |
| 2026-05-05 16:27 | 30.62740 | 111.29100 | 35035 ft | 354 kts | 77° |
| 2026-05-05 16:27 | 30.62946 | 111.31863 | 35030 ft | 346 kts | 72° |
| 2026-05-05 16:28 | 30.63739 | 111.37359 | 35029 ft | 345 kts | 70° |
| 2026-05-05 16:28 | 30.64545 | 111.42855 | 35031 ft | 346 kts | 71° |
| 2026-05-05 16:29 | 30.65249 | 111.48387 | 35027 ft | 349 kts | 74° |
| 2026-05-05 16:29 | 30.65607 | 111.54040 | 35027 ft | 352 kts | 76° |
| 2026-05-05 16:30 | 30.65887 | 111.59720 | 35030 ft | 352 kts | 76° |
| 2026-05-05 16:30 | 30.66169 | 111.65393 | 35028 ft | 352 kts | 76° |
| 2026-05-05 16:31 | 30.66454 | 111.71068 | 35030 ft | 352 kts | 76° |
| 2026-05-05 16:31 | 30.66742 | 111.76743 | 35026 ft | 352 kts | 76° |
| 2026-05-05 16:32 | 30.67031 | 111.82418 | 35030 ft | 352 kts | 76° |
| 2026-05-05 16:32 | 30.67318 | 111.88096 | 35030 ft | 352 kts | 76° |
| 2026-05-05 16:33 | 30.67603 | 111.93771 | 35030 ft | 352 kts | 76° |
| 2026-05-05 16:33 | 30.67937 | 111.99434 | 35030 ft | 351 kts | 75° |
| 2026-05-05 16:34 | 30.68324 | 112.05081 | 35028 ft | 351 kts | 75° |
| 2026-05-05 16:34 | 30.68715 | 112.10726 | 35031 ft | 351 kts | 75° |
| 2026-05-05 16:35 | 30.69102 | 112.16369 | 35030 ft | 351 kts | 75° |
| 2026-05-05 16:35 | 30.69487 | 112.22022 | 35030 ft | 351 kts | 75° |
| 2026-05-05 16:36 | 30.69869 | 112.27668 | 35027 ft | 351 kts | 75° |
| 2026-05-05 16:36 | 30.70248 | 112.33322 | 35028 ft | 351 kts | 75° |
| 2026-05-05 16:37 | 30.70625 | 112.38967 | 35027 ft | 351 kts | 75° |
| 2026-05-05 16:37 | 30.70999 | 112.44616 | 35030 ft | 351 kts | 75° |
| 2026-05-05 16:38 | 30.71372 | 112.50271 | 35028 ft | 351 kts | 75° |
| 2026-05-05 16:38 | 30.71741 | 112.55923 | 35029 ft | 351 kts | 75° |
| 2026-05-05 16:39 | 30.72109 | 112.61577 | 35028 ft | 351 kts | 75° |
| 2026-05-05 16:39 | 30.72474 | 112.67235 | 35030 ft | 351 kts | 75° |
| 2026-05-05 16:40 | 30.72834 | 112.72853 | 35030 ft | 351 kts | 75° |
| 2026-05-05 16:40 | 30.73193 | 112.78508 | 35029 ft | 351 kts | 75° |
| 2026-05-05 16:41 | 30.73551 | 112.84167 | 35030 ft | 351 kts | 76° |
| 2026-05-05 16:41 | 30.73906 | 112.89828 | 35030 ft | 351 kts | 76° |
| 2026-05-05 16:42 | 30.74245 | 112.95491 | 35029 ft | 351 kts | 76° |
| 2026-05-05 16:42 | 30.74578 | 113.01160 | 35028 ft | 351 kts | 76° |
| 2026-05-05 16:43 | 30.74919 | 113.06821 | 35030 ft | 351 kts | 76° |
| 2026-05-05 16:43 | 30.75262 | 113.12488 | 35028 ft | 351 kts | 76° |
| 2026-05-05 16:44 | 30.75482 | 113.18184 | 35029 ft | 354 kts | 78° |
| 2026-05-05 16:44 | 30.75629 | 113.23903 | 35028 ft | 354 kts | 78° |
| 2026-05-05 16:45 | 30.75773 | 113.29619 | 35029 ft | 354 kts | 78° |
| 2026-05-05 16:45 | 30.75919 | 113.35338 | 35028 ft | 354 kts | 78° |
| 2026-05-05 16:46 | 30.76064 | 113.41058 | 35029 ft | 354 kts | 78° |
| 2026-05-05 16:46 | 30.76207 | 113.46777 | 35028 ft | 354 kts | 78° |
| 2026-05-05 16:47 | 30.76348 | 113.52498 | 35029 ft | 354 kts | 78° |
| 2026-05-05 16:47 | 30.76481 | 113.58018 | 35028 ft | 354 kts | 78° |
| 2026-05-05 16:48 | 30.76618 | 113.63742 | 35030 ft | 354 kts | 78° |
| 2026-05-05 16:48 | 30.76751 | 113.69463 | 35029 ft | 354 kts | 78° |
| 2026-05-05 16:49 | 30.76882 | 113.75181 | 35028 ft | 354 kts | 78° |
| 2026-05-05 16:49 | 30.77010 | 113.80905 | 35028 ft | 354 kts | 78° |
| 2026-05-05 16:50 | 30.77136 | 113.86629 | 35031 ft | 354 kts | 78° |
| 2026-05-05 16:50 | 30.77260 | 113.92354 | 35028 ft | 354 kts | 78° |
| 2026-05-05 16:51 | 30.77380 | 113.98040 | 35030 ft | 354 kts | 78° |
| 2026-05-05 16:51 | 30.77532 | 114.03757 | 35028 ft | 353 kts | 77° |
| 2026-05-05 16:52 | 30.77750 | 114.09448 | 35028 ft | 353 kts | 77° |
| 2026-05-05 16:52 | 30.77982 | 114.15143 | 35029 ft | 353 kts | 77° |
| 2026-05-05 16:53 | 30.78430 | 114.20764 | 35026 ft | 341 kts | 66° |
| 2026-05-05 16:53 | 30.79924 | 114.25836 | 35029 ft | 334 kts | 60° |
| 2026-05-05 16:54 | 30.81631 | 114.30866 | 35029 ft | 335 kts | 60° |
| 2026-05-05 16:54 | 30.83298 | 114.35921 | 35028 ft | 335 kts | 61° |
| 2026-05-05 16:55 | 30.84946 | 114.40992 | 35029 ft | 335 kts | 61° |
| 2026-05-05 16:55 | 30.86587 | 114.46070 | 35029 ft | 335 kts | 61° |
| 2026-05-05 16:56 | 30.88234 | 114.51145 | 35029 ft | 335 kts | 61° |
| 2026-05-05 16:56 | 30.89883 | 114.56218 | 35027 ft | 335 kts | 61° |
| 2026-05-05 16:57 | 30.91530 | 114.61292 | 35029 ft | 335 kts | 61° |
| 2026-05-05 16:57 | 30.93175 | 114.66364 | 35030 ft | 335 kts | 61° |
| 2026-05-05 16:58 | 30.94819 | 114.71443 | 35027 ft | 335 kts | 61° |
| 2026-05-05 16:58 | 30.96461 | 114.76522 | 35027 ft | 335 kts | 61° |
| 2026-05-05 16:59 | 30.97825 | 114.80747 | 35029 ft | 335 kts | 61° |
| 2026-05-05 16:59 | 30.99741 | 114.86690 | 35027 ft | 335 kts | 61° |
| 2026-05-05 17:00 | 31.01367 | 114.91744 | 35028 ft | 335 kts | 61° |
| 2026-05-05 17:00 | 31.02993 | 114.96837 | 35030 ft | 335 kts | 61° |
| 2026-05-05 17:01 | 31.04355 | 115.01106 | 35028 ft | 335 kts | 61° |
| 2026-05-05 17:01 | 31.06246 | 115.07027 | 35029 ft | 335 kts | 61° |
| 2026-05-05 17:02 | 31.07871 | 115.12116 | 35029 ft | 335 kts | 61° |
| 2026-05-05 17:02 | 31.09224 | 115.16354 | 35030 ft | 335 kts | 61° |
| 2026-05-05 17:03 | 31.10859 | 115.21488 | 35022 ft | 335 kts | 62° |
| 2026-05-05 17:03 | 31.12468 | 115.26598 | 35032 ft | 335 kts | 62° |
| 2026-05-05 17:04 | 31.14091 | 115.31660 | 35028 ft | 335 kts | 61° |
| 2026-05-05 17:04 | 31.15751 | 115.36777 | 35029 ft | 335 kts | 61° |
| 2026-05-05 17:05 | 31.17389 | 115.41830 | 35029 ft | 335 kts | 61° |
| 2026-05-05 17:05 | 31.19037 | 115.46920 | 35029 ft | 335 kts | 61° |
| 2026-05-05 17:06 | 31.20681 | 115.52007 | 35029 ft | 335 kts | 61° |
| 2026-05-05 17:06 | 31.22326 | 115.57105 | 35028 ft | 335 kts | 61° |
| 2026-05-05 17:07 | 31.23967 | 115.62200 | 35028 ft | 336 kts | 61° |
| 2026-05-05 17:07 | 31.25608 | 115.67302 | 35030 ft | 335 kts | 61° |
| 2026-05-05 17:08 | 31.27248 | 115.72410 | 35032 ft | 335 kts | 61° |
| 2026-05-05 17:08 | 31.28883 | 115.77510 | 35030 ft | 335 kts | 61° |
| 2026-05-05 17:09 | 31.30508 | 115.82623 | 35029 ft | 336 kts | 62° |
| 2026-05-05 17:09 | 31.32133 | 115.87733 | 35030 ft | 335 kts | 61° |
| 2026-05-05 17:10 | 31.33788 | 115.92828 | 35028 ft | 335 kts | 61° |
| 2026-05-05 17:10 | 31.35449 | 115.97916 | 35030 ft | 335 kts | 61° |
| 2026-05-05 17:11 | 31.37109 | 116.03005 | 35032 ft | 335 kts | 61° |
| 2026-05-05 17:11 | 31.38770 | 116.08103 | 35039 ft | 335 kts | 61° |
| 2026-05-05 17:12 | 31.40429 | 116.13205 | 35030 ft | 335 kts | 61° |
| 2026-05-05 17:12 | 31.42083 | 116.18300 | 35026 ft | 335 kts | 61° |
| 2026-05-05 17:13 | 31.43738 | 116.23403 | 35028 ft | 335 kts | 61° |
| 2026-05-05 17:13 | 31.45388 | 116.28502 | 35029 ft | 335 kts | 61° |
| 2026-05-05 17:14 | 31.47038 | 116.33606 | 35027 ft | 335 kts | 61° |
| 2026-05-05 17:14 | 31.48685 | 116.38710 | 35029 ft | 335 kts | 61° |
| 2026-05-05 17:15 | 31.50331 | 116.43819 | 35030 ft | 335 kts | 61° |
| 2026-05-05 17:15 | 31.51963 | 116.48893 | 35028 ft | 335 kts | 61° |
| 2026-05-05 17:16 | 31.53604 | 116.54005 | 35031 ft | 335 kts | 61° |
| 2026-05-05 17:16 | 31.55244 | 116.59119 | 35027 ft | 335 kts | 61° |
| 2026-05-05 17:17 | 31.56882 | 116.64238 | 35030 ft | 335 kts | 61° |
| 2026-05-05 17:17 | 31.58518 | 116.69356 | 35030 ft | 335 kts | 61° |
| 2026-05-05 17:18 | 31.60151 | 116.74475 | 35030 ft | 335 kts | 61° |
| 2026-05-05 17:18 | 31.61780 | 116.79602 | 35028 ft | 335 kts | 62° |
| 2026-05-05 17:19 | 31.63392 | 116.84738 | 35030 ft | 335 kts | 62° |
| 2026-05-05 17:19 | 31.65011 | 116.89871 | 35027 ft | 335 kts | 62° |
| 2026-05-05 17:20 | 31.66633 | 116.94999 | 35027 ft | 335 kts | 61° |
| 2026-05-05 17:20 | 31.68254 | 117.00131 | 35030 ft | 335 kts | 62° |
| 2026-05-05 17:21 | 31.69850 | 117.05284 | 35030 ft | 336 kts | 62° |
| 2026-05-05 17:22 | 31.72228 | 117.13014 | 35030 ft | 336 kts | 62° |
| 2026-05-05 17:22 | 31.73813 | 117.18172 | 35028 ft | 336 kts | 62° |
| 2026-05-05 17:23 | 31.75398 | 117.23332 | 35029 ft | 336 kts | 62° |
| 2026-05-05 17:23 | 31.76942 | 117.28516 | 35033 ft | 339 kts | 66° |
| 2026-05-05 17:23 | 31.77371 | 117.31276 | 35026 ft | 350 kts | 76° |
| 2026-05-05 17:24 | 31.77369 | 117.34174 | 35031 ft | 359 kts | 82° |
| 2026-05-05 17:24 | 31.76945 | 117.40060 | 35028 ft | 363 kts | 84° |
| 2026-05-05 17:25 | 31.76475 | 117.45951 | 35028 ft | 362 kts | 84° |
| 2026-05-05 17:25 | 31.76043 | 117.51839 | 35029 ft | 361 kts | 84° |
| 2026-05-05 17:26 | 31.75629 | 117.57727 | 35027 ft | 361 kts | 83° |